createdAt,value
2017-04-24T00:00:44.928Z,87.20
2017-04-24T00:01:44.877Z,86.90
2017-04-24T00:02:44.764Z,86.50
2017-04-24T00:03:44.641Z,86.90
2017-04-24T00:04:44.535Z,86.70
2017-04-24T00:05:45.260Z,86.50
2017-04-24T00:06:45.916Z,86.60
2017-04-24T00:07:45.886Z,86.80
2017-04-24T00:08:46.529Z,86.50
2017-04-24T00:09:46.476Z,86.30
2017-04-24T00:10:46.370Z,86.30
2017-04-24T00:11:46.267Z,85.90
2017-04-24T00:12:46.189Z,85.90
2017-04-24T00:13:46.130Z,86.00
2017-04-24T00:14:46.034Z,86.00
2017-04-24T00:15:46.667Z,86.10
2017-04-24T00:16:46.610Z,85.70
2017-04-24T00:17:46.494Z,85.90
2017-04-24T00:18:46.390Z,85.70
2017-04-24T00:19:46.266Z,86.60
2017-04-24T00:20:46.191Z,85.60
2017-04-24T00:21:46.865Z,85.70
2017-04-24T00:22:46.757Z,85.50
2017-04-24T00:23:46.626Z,85.40
2017-04-24T00:24:47.246Z,85.40
2017-04-24T00:25:47.154Z,85.60
2017-04-24T00:26:47.091Z,85.20
2017-04-24T00:27:46.977Z,85.30
2017-04-24T00:28:46.866Z,85.30
2017-04-24T00:29:46.770Z,85.40
2017-04-24T00:30:47.390Z,85.50
2017-04-24T00:31:47.398Z,85.40
2017-04-24T00:32:47.377Z,85.30
2017-04-24T00:33:48.022Z,85.30
2017-04-24T00:34:47.918Z,84.70
2017-04-24T00:35:48.542Z,85.20
2017-04-24T00:36:48.529Z,85.20
2017-04-24T00:37:48.409Z,85.00
2017-04-24T00:38:48.274Z,85.10
2017-04-24T00:39:48.147Z,85.20
2017-04-24T00:40:48.033Z,85.10
2017-04-24T00:41:47.959Z,85.00
2017-04-24T00:42:48.590Z,85.30
2017-04-24T00:43:49.237Z,85.10
2017-04-24T00:44:49.160Z,85.00
2017-04-24T00:45:49.093Z,84.80
2017-04-24T00:46:49.049Z,85.20
2017-04-24T00:47:48.969Z,85.30
2017-04-24T00:48:48.875Z,84.90
2017-04-24T00:49:48.743Z,85.20
2017-04-24T00:50:49.379Z,84.90
2017-04-24T00:51:49.311Z,85.00
2017-04-24T00:52:49.243Z,84.80
2017-04-24T00:53:49.189Z,84.60
2017-04-24T00:54:49.117Z,84.70
2017-04-24T00:55:49.010Z,84.30
2017-04-24T00:56:48.944Z,84.80
2017-04-24T00:57:48.813Z,84.30
2017-04-24T00:58:49.363Z,84.40
2017-04-24T00:59:49.268Z,84.60
2017-04-24T01:00:49.186Z,84.50
2017-04-24T01:01:49.140Z,84.10
2017-04-24T01:02:49.050Z,84.10
2017-04-24T01:03:48.936Z,84.20
2017-04-24T01:04:49.557Z,84.30
2017-04-24T01:05:50.240Z,84.20
2017-04-24T01:06:50.188Z,84.20
2017-04-24T01:07:50.069Z,84.10
2017-04-24T01:08:50.011Z,84.10
2017-04-24T01:09:49.901Z,84.00
2017-04-24T01:10:49.802Z,84.10
2017-04-24T01:11:50.493Z,84.10
2017-04-24T01:12:50.433Z,84.10
2017-04-24T01:13:50.441Z,83.80
2017-04-24T01:14:50.344Z,83.70
2017-04-24T01:15:50.309Z,83.90
2017-04-24T01:17:50.337Z,84.00
2017-04-24T01:18:50.967Z,84.00
2017-04-24T01:19:51.622Z,83.60
2017-04-24T01:20:51.561Z,83.30
2017-04-24T01:21:51.477Z,83.60
2017-04-24T01:22:51.384Z,83.50
2017-04-24T01:23:51.294Z,83.60
2017-04-24T01:25:51.277Z,83.70
2017-04-24T01:26:51.302Z,83.00
2017-04-24T01:27:51.232Z,83.00
2017-04-24T01:28:51.887Z,83.50
2017-04-24T01:29:51.824Z,82.90
2017-04-24T01:30:51.731Z,82.50
2017-04-24T01:31:52.404Z,82.20
2017-04-24T01:32:52.309Z,82.50
2017-04-24T01:33:52.237Z,82.30
2017-04-24T01:34:52.130Z,81.90
2017-04-24T01:35:52.057Z,81.90
2017-04-24T01:36:51.999Z,82.00
2017-04-24T01:37:51.902Z,81.70
2017-04-24T01:38:51.837Z,81.70
2017-04-24T01:39:51.721Z,82.00
2017-04-24T01:40:52.467Z,81.70
2017-04-24T01:41:53.122Z,81.40
2017-04-24T01:42:53.012Z,81.10
2017-04-24T01:43:52.904Z,81.20
2017-04-24T01:44:52.820Z,80.90
2017-04-24T01:45:52.752Z,81.10
2017-04-24T01:46:52.682Z,81.20
2017-04-24T01:47:53.333Z,80.70
2017-04-24T01:48:53.261Z,80.70
2017-04-24T01:49:53.722Z,80.30
2017-04-24T01:50:54.342Z,81.10
2017-04-24T01:51:54.253Z,80.10
2017-04-24T01:52:54.933Z,80.60
2017-04-24T01:53:54.849Z,80.20
2017-04-24T01:54:54.730Z,79.90
2017-04-24T01:55:54.606Z,79.90
2017-04-24T01:56:54.493Z,80.00
2017-04-24T01:57:54.416Z,79.70
2017-04-24T01:58:54.306Z,79.80
2017-04-24T01:59:54.981Z,79.40
2017-04-24T02:00:54.880Z,79.40
2017-04-24T02:01:54.781Z,79.20
2017-04-24T02:02:54.771Z,78.80
2017-04-24T02:03:54.695Z,79.20
2017-04-24T02:04:54.597Z,79.00
2017-04-24T02:05:54.494Z,79.00
2017-04-24T02:06:54.381Z,78.60
2017-04-24T02:07:54.352Z,79.00
2017-04-24T02:08:54.236Z,78.50
2017-04-24T02:09:54.229Z,78.90
2017-04-24T02:10:54.145Z,79.00
2017-04-24T02:11:54.105Z,78.70
2017-04-24T02:12:54.089Z,78.60
2017-04-24T02:13:54.745Z,78.80
2017-04-24T02:14:54.639Z,78.40
2017-04-24T02:15:54.553Z,78.30
2017-04-24T02:16:54.458Z,78.00
2017-04-24T02:17:54.361Z,77.90
2017-04-24T02:18:54.297Z,78.20
2017-04-24T02:19:54.212Z,77.90
2017-04-24T02:20:54.121Z,78.00
2017-04-24T02:21:54.068Z,77.70
2017-04-24T02:22:54.077Z,78.20
2017-04-24T02:23:54.742Z,78.20
2017-04-24T02:24:54.687Z,78.10
2017-04-24T02:25:55.380Z,77.50
2017-04-24T02:26:55.282Z,77.60
2017-04-24T02:27:55.238Z,77.40
2017-04-24T02:28:55.143Z,77.50
2017-04-24T02:29:55.057Z,78.20
2017-04-24T02:30:54.999Z,78.00
2017-04-24T02:31:54.914Z,77.90
2017-04-24T02:32:54.830Z,77.90
2017-04-24T02:33:55.494Z,77.30
2017-04-24T02:34:55.434Z,77.60
2017-04-24T02:35:55.314Z,77.80
2017-04-24T02:36:55.206Z,77.90
2017-04-24T02:37:55.124Z,78.00
2017-04-24T02:38:55.151Z,78.00
2017-04-24T02:39:55.096Z,78.00
2017-04-24T02:40:54.986Z,77.70
2017-04-24T02:41:55.784Z,77.70
2017-04-24T02:42:55.692Z,78.10
2017-04-24T02:43:55.621Z,78.30
2017-04-24T02:44:56.261Z,77.70
2017-04-24T02:45:56.919Z,78.00
2017-04-24T02:46:56.829Z,78.20
2017-04-24T02:47:56.796Z,78.40
2017-04-24T02:48:56.741Z,78.10
2017-04-24T02:49:56.658Z,78.00
2017-04-24T02:50:56.575Z,78.20
2017-04-24T02:51:56.502Z,78.30
2017-04-24T02:52:56.405Z,78.60
2017-04-24T02:53:57.082Z,78.40
2017-04-24T02:54:57.754Z,78.30
2017-04-24T02:55:58.393Z,78.50
2017-04-24T02:56:58.282Z,78.70
2017-04-24T02:57:59.005Z,78.40
2017-04-24T02:58:59.673Z,78.40
2017-04-24T02:59:59.591Z,78.60
2017-04-24T03:01:00.249Z,78.40
2017-04-24T03:02:01.112Z,78.50
2017-04-24T03:03:01.037Z,78.70
2017-04-24T03:04:00.939Z,78.70
2017-04-24T03:05:01.613Z,79.10
2017-04-24T03:06:01.514Z,79.00
2017-04-24T03:07:02.153Z,79.20
2017-04-24T03:08:02.086Z,79.20
2017-04-24T03:09:01.980Z,79.10
2017-04-24T03:10:01.881Z,79.10
2017-04-24T03:11:01.897Z,79.30
2017-04-24T03:12:01.790Z,79.40
2017-04-24T03:13:01.701Z,79.40
2017-04-24T03:14:01.600Z,79.20
2017-04-24T03:15:01.489Z,79.70
2017-04-24T03:16:01.428Z,79.70
2017-04-24T03:17:01.361Z,79.60
2017-04-24T03:18:01.270Z,80.00
2017-04-24T03:19:01.224Z,80.10
2017-04-24T03:20:01.138Z,80.00
2017-04-24T03:21:01.119Z,80.10
2017-04-24T03:22:01.772Z,80.20
2017-04-24T03:23:01.650Z,80.30
2017-04-24T03:24:01.605Z,80.50
2017-04-24T03:25:02.244Z,81.00
2017-04-24T03:26:02.873Z,80.70
2017-04-24T03:27:03.523Z,81.10
2017-04-24T03:28:03.429Z,81.10
2017-04-24T03:29:03.381Z,80.80
2017-04-24T03:30:03.285Z,81.40
2017-04-24T03:31:03.218Z,80.80
2017-04-24T03:32:03.866Z,81.10
2017-04-24T03:33:03.753Z,80.90
2017-04-24T03:34:03.662Z,81.10
2017-04-24T03:35:03.601Z,81.10
2017-04-24T03:36:03.506Z,81.20
2017-04-24T03:37:03.391Z,81.70
2017-04-24T03:38:03.265Z,81.70
2017-04-24T03:39:04.216Z,81.10
2017-04-24T03:40:04.137Z,81.00
2017-04-24T03:41:04.033Z,81.00
2017-04-24T03:42:03.937Z,81.20
2017-04-24T03:43:03.831Z,81.00
2017-04-24T03:44:03.744Z,81.00
2017-04-24T03:45:03.681Z,81.00
2017-04-24T03:46:03.608Z,80.80
2017-04-24T03:47:04.278Z,81.30
2017-04-24T03:48:04.181Z,80.80
2017-04-24T03:49:04.076Z,81.60
2017-04-24T03:50:04.000Z,81.10
2017-04-24T03:51:03.895Z,81.20
2017-04-24T03:52:03.785Z,81.70
2017-04-24T03:53:03.686Z,81.40
2017-04-24T03:54:03.604Z,81.30
2017-04-24T03:55:03.532Z,81.60
2017-04-24T03:56:03.433Z,81.40
2017-04-24T03:57:03.319Z,81.30
2017-04-24T03:58:03.206Z,81.30
2017-04-24T03:59:02.317Z,81.40
2017-04-24T04:00:02.300Z,81.30
2017-04-24T04:01:02.918Z,82.50
2017-04-24T04:02:02.812Z,81.60
2017-04-24T04:03:02.734Z,81.80
2017-04-24T04:04:02.617Z,82.00
2017-04-24T04:05:02.696Z,82.10
2017-04-24T04:06:02.566Z,82.20
2017-04-24T04:07:02.493Z,82.10
2017-04-24T04:08:02.555Z,82.20
2017-04-24T04:09:02.478Z,82.40
2017-04-24T04:10:02.394Z,82.10
2017-04-24T04:11:02.322Z,82.10
2017-04-24T04:12:02.222Z,82.20
2017-04-24T04:13:02.151Z,82.20
2017-04-24T04:14:02.841Z,83.10
2017-04-24T04:15:02.790Z,82.60
2017-04-24T04:16:03.467Z,82.60
2017-04-24T04:17:06.645Z,82.40
2017-04-24T04:18:06.563Z,82.50
2017-04-24T04:19:06.491Z,82.40
2017-04-24T04:20:07.190Z,82.40
2017-04-24T04:21:07.118Z,82.50
2017-04-24T04:22:07.079Z,82.40
2017-04-24T04:23:07.054Z,82.10
2017-04-24T04:24:07.065Z,82.00
2017-04-24T04:25:07.738Z,82.10
2017-04-24T04:26:07.732Z,82.40
2017-04-24T04:27:07.657Z,82.00
2017-04-24T04:28:07.578Z,82.10
2017-04-24T04:29:07.504Z,81.90
2017-04-24T04:30:07.453Z,81.90
2017-04-24T04:31:08.185Z,81.90
2017-04-24T04:32:08.216Z,82.00
2017-04-24T04:33:08.869Z,81.30
2017-04-24T04:34:08.874Z,82.60
2017-04-24T04:35:09.513Z,81.80
2017-04-24T04:36:09.487Z,81.50
2017-04-24T04:37:10.132Z,81.60
2017-04-24T04:38:10.069Z,81.80
2017-04-24T04:39:09.977Z,81.70
2017-04-24T04:40:09.923Z,81.30
2017-04-24T04:41:10.633Z,81.30
2017-04-24T04:42:10.567Z,80.90
2017-04-24T04:43:10.517Z,81.70
2017-04-24T04:44:10.450Z,80.80
2017-04-24T04:45:10.354Z,81.00
2017-04-24T04:46:10.336Z,80.60
2017-04-24T04:47:10.237Z,80.40
2017-04-24T04:48:10.145Z,80.30
2017-04-24T04:49:10.084Z,79.90
2017-04-24T04:50:10.761Z,79.80
2017-04-24T04:51:10.726Z,80.00
2017-04-24T04:52:10.631Z,79.50
2017-04-24T04:53:10.667Z,79.80
2017-04-24T04:54:10.608Z,79.70
2017-04-24T04:55:10.562Z,79.90
2017-04-24T04:56:10.477Z,79.50
2017-04-24T04:57:10.406Z,79.70
2017-04-24T04:58:10.361Z,79.60
2017-04-24T04:59:11.005Z,79.20
2017-04-24T05:00:10.961Z,79.00
2017-04-24T05:01:10.892Z,78.70
2017-04-24T05:02:10.833Z,79.20
2017-04-24T05:03:11.320Z,78.50
2017-04-24T05:04:11.957Z,78.50
2017-04-24T05:05:11.885Z,78.40
2017-04-24T05:06:11.797Z,78.50
2017-04-24T05:07:11.737Z,78.40
2017-04-24T05:08:12.417Z,78.40
2017-04-24T05:09:12.362Z,78.50
2017-04-24T05:10:13.689Z,78.00
2017-04-24T05:11:13.653Z,77.90
2017-04-24T05:12:13.609Z,78.20
2017-04-24T05:13:14.266Z,78.40
2017-04-24T05:14:14.166Z,77.90
2017-04-24T05:15:14.081Z,78.10
2017-04-24T05:16:13.985Z,77.40
2017-04-24T05:17:13.948Z,77.40
2017-04-24T05:18:13.982Z,77.20
2017-04-24T05:19:14.621Z,77.40
2017-04-24T05:20:14.534Z,77.10
2017-04-24T05:21:14.481Z,76.80
2017-04-24T05:22:15.213Z,77.00
2017-04-24T05:23:15.910Z,76.80
2017-04-24T05:24:15.846Z,76.40
2017-04-24T05:25:16.570Z,76.60
2017-04-24T05:26:17.213Z,76.50
2017-04-24T05:27:17.180Z,76.20
2017-04-24T05:28:17.122Z,76.50
2017-04-24T05:29:17.757Z,75.40
2017-04-24T05:30:17.693Z,75.40
2017-04-24T05:31:17.625Z,75.10
2017-04-24T05:32:18.359Z,74.80
2017-04-24T05:33:19.004Z,75.10
2017-04-24T05:34:18.956Z,74.40
2017-04-24T05:35:18.873Z,74.40
2017-04-24T05:36:18.777Z,74.10
2017-04-24T05:37:18.738Z,73.70
2017-04-24T05:38:18.629Z,73.80
2017-04-24T05:39:18.549Z,73.80
2017-04-24T05:40:18.462Z,73.20
2017-04-24T05:41:18.388Z,73.10
2017-04-24T05:42:18.317Z,72.90
2017-04-24T05:43:19.010Z,72.90
2017-04-24T05:44:18.950Z,72.40
2017-04-24T05:45:19.617Z,72.20
2017-04-24T05:46:19.525Z,72.00
2017-04-24T05:47:19.444Z,71.90
2017-04-24T05:48:19.354Z,71.40
2017-04-24T05:49:19.409Z,71.20
2017-04-24T05:50:20.031Z,70.70
2017-04-24T05:51:19.954Z,70.60
2017-04-24T05:52:19.906Z,70.30
2017-04-24T05:53:19.819Z,70.10
2017-04-24T05:54:19.721Z,70.10
2017-04-24T05:55:20.576Z,70.50
2017-04-24T05:56:21.241Z,70.80
2017-04-24T05:57:21.199Z,70.50
2017-04-24T05:58:21.835Z,70.70
2017-04-24T05:59:21.746Z,70.90
2017-04-24T06:00:21.669Z,70.60
2017-04-24T06:01:21.596Z,70.30
2017-04-24T06:02:21.569Z,70.10
2017-04-24T06:03:25.109Z,70.50
2017-04-24T06:04:25.781Z,70.00
2017-04-24T06:05:25.700Z,70.00
2017-04-24T06:06:25.772Z,69.90
2017-04-24T06:07:25.712Z,70.10
2017-04-24T06:08:25.681Z,69.90
2017-04-24T06:09:25.694Z,69.50
2017-04-24T06:10:26.377Z,69.60
2017-04-24T06:12:26.445Z,69.50
2017-04-24T06:13:26.433Z,69.70
2017-04-24T06:14:27.104Z,69.10
2017-04-24T06:15:27.026Z,69.20
2017-04-24T06:16:27.664Z,69.30
2017-04-24T06:17:28.365Z,69.30
2017-04-24T06:18:28.279Z,68.90
2017-04-24T06:19:29.136Z,68.30
2017-04-24T06:20:30.163Z,68.10
2017-04-24T06:21:30.785Z,68.10
2017-04-24T06:22:30.726Z,67.30
2017-04-24T06:23:30.670Z,67.00
2017-04-24T06:24:31.318Z,66.80
2017-04-24T06:25:31.244Z,66.50
2017-04-24T06:26:31.186Z,66.20
2017-04-24T06:27:31.321Z,65.80
2017-04-24T06:28:31.974Z,65.40
2017-04-24T06:29:31.874Z,64.70
2017-04-24T06:30:31.781Z,65.10
2017-04-24T06:31:31.706Z,64.30
2017-04-24T06:32:31.839Z,64.20
2017-04-24T06:33:31.786Z,64.10
2017-04-24T06:34:31.702Z,63.80
2017-04-24T06:35:31.627Z,63.50
2017-04-24T06:36:31.562Z,62.80
2017-04-24T06:37:31.545Z,62.00
2017-04-24T06:38:31.489Z,61.20
2017-04-24T06:39:32.198Z,60.90
2017-04-24T06:40:32.142Z,60.40
2017-04-24T06:41:32.841Z,60.10
2017-04-24T06:42:33.573Z,59.60
2017-04-24T06:43:34.211Z,59.10
2017-04-24T06:44:39.377Z,59.30
2017-04-24T06:45:39.337Z,59.00
2017-04-24T06:46:39.993Z,59.20
2017-04-24T06:47:39.926Z,59.30
2017-04-24T06:48:39.841Z,59.00
2017-04-24T06:49:39.764Z,59.10
2017-04-24T06:50:40.444Z,59.00
2017-04-24T06:51:40.349Z,58.70
2017-04-24T06:52:40.294Z,58.70
2017-04-24T06:53:41.614Z,59.00
2017-04-24T06:59:49.076Z,58.00
2017-04-24T07:00:48.977Z,57.30
2017-04-24T07:01:49.296Z,57.10
2017-04-24T07:02:50.556Z,56.60
2017-04-24T07:03:50.459Z,57.20
2017-04-24T07:04:50.373Z,57.30
2017-04-24T07:05:50.293Z,57.50
2017-04-24T07:06:50.238Z,56.20
2017-04-24T07:07:50.238Z,56.00
2017-04-24T07:08:50.925Z,55.80
2017-04-24T07:09:50.833Z,55.90
2017-04-24T07:10:50.730Z,55.80
2017-04-24T07:11:50.660Z,55.90
2017-04-24T07:12:51.334Z,55.70
2017-04-24T07:13:51.265Z,55.70
2017-04-24T07:14:51.195Z,55.40
2017-04-24T07:15:51.841Z,55.30
2017-04-24T07:16:51.756Z,55.70
2017-04-24T07:17:51.669Z,55.30
2017-04-24T07:18:52.609Z,55.20
2017-04-24T07:19:52.509Z,54.90
2017-04-24T07:20:52.453Z,54.80
2017-04-24T07:21:53.101Z,54.80
2017-04-24T07:22:53.037Z,54.60
2017-04-24T07:23:52.974Z,54.30
2017-04-24T07:24:52.894Z,53.50
2017-04-24T07:25:53.545Z,53.80
2017-04-24T07:26:53.786Z,52.80
2017-04-24T07:27:53.716Z,52.10
2017-04-24T07:28:53.637Z,52.30
2017-04-24T07:29:54.308Z,51.50
2017-04-24T07:30:54.222Z,51.60
2017-04-24T07:31:54.124Z,51.20
2017-04-24T07:32:54.089Z,50.80
2017-04-24T07:33:54.099Z,50.70
2017-04-24T07:34:54.725Z,50.50
2017-04-24T07:35:58.864Z,50.80
2017-04-24T07:36:58.865Z,50.60
2017-04-24T07:37:58.801Z,50.50
2017-04-24T07:38:58.781Z,50.40
2017-04-24T07:39:58.700Z,50.40
2017-04-24T07:40:58.629Z,50.30
2017-04-24T07:41:59.284Z,50.60
2017-04-24T07:42:59.254Z,50.80
2017-04-24T07:43:59.914Z,50.60
2017-04-24T07:44:59.874Z,50.60
2017-04-24T07:45:59.776Z,50.80
2017-04-24T07:47:00.532Z,51.20
2017-04-24T07:48:00.481Z,51.20
2017-04-24T07:49:00.872Z,51.10
2017-04-24T07:50:00.800Z,51.00
2017-04-24T07:51:00.867Z,50.80
2017-04-24T07:52:01.513Z,50.90
2017-04-24T07:53:01.541Z,51.00
2017-04-24T07:54:01.501Z,50.60
2017-04-24T07:55:02.138Z,50.50
2017-04-24T07:56:02.050Z,50.70
2017-04-24T07:57:01.931Z,50.40
2017-04-24T07:58:01.881Z,50.10
2017-04-24T07:59:01.837Z,50.20
2017-04-24T08:00:01.744Z,50.30
2017-04-24T08:01:02.457Z,50.20
2017-04-24T08:02:03.129Z,49.90
2017-04-24T08:03:03.053Z,49.70
2017-04-24T08:04:02.988Z,49.80
2017-04-24T08:05:03.702Z,49.90
2017-04-24T08:06:04.397Z,50.30
2017-04-24T08:07:04.309Z,49.90
2017-04-24T08:08:04.318Z,50.10
2017-04-24T08:09:04.338Z,49.60
2017-04-24T08:10:04.247Z,48.90
2017-04-24T08:11:04.878Z,48.70
2017-04-24T08:12:05.841Z,48.90
2017-04-24T08:13:05.770Z,48.80
2017-04-24T08:14:05.702Z,48.90
2017-04-24T08:15:05.601Z,49.00
2017-04-24T08:16:05.581Z,48.30
2017-04-24T08:17:05.545Z,47.70
2017-04-24T08:18:06.250Z,46.90
2017-04-24T08:19:06.901Z,47.20
2017-04-24T08:20:06.805Z,47.60
2017-04-24T08:21:06.697Z,47.70
2017-04-24T08:22:06.761Z,47.60
2017-04-24T08:23:06.719Z,47.50
2017-04-24T08:24:06.615Z,47.50
2017-04-24T08:25:07.259Z,47.10
2017-04-24T08:26:07.209Z,47.60
2017-04-24T08:27:07.185Z,46.60
2017-04-24T08:28:07.149Z,46.70
2017-04-24T08:29:07.813Z,45.90
2017-04-24T08:30:07.880Z,45.70
2017-04-24T08:31:07.893Z,46.00
2017-04-24T08:32:08.542Z,47.00
2017-04-24T08:33:08.534Z,46.00
2017-04-24T08:34:08.433Z,45.20
2017-04-24T08:35:08.340Z,44.20
2017-04-24T08:36:08.245Z,43.40
2017-04-24T08:37:08.145Z,43.40
2017-04-24T08:38:08.066Z,42.70
2017-04-24T08:39:08.014Z,42.00
2017-04-24T08:40:07.916Z,41.40
2017-04-24T08:41:07.832Z,41.90
2017-04-24T08:42:08.490Z,42.40
2017-04-24T08:43:08.630Z,42.70
2017-04-24T08:44:08.558Z,42.50
2017-04-24T08:45:09.222Z,42.00
2017-04-24T08:46:09.100Z,42.20
2017-04-24T08:47:10.091Z,41.70
2017-04-24T08:48:09.998Z,41.80
2017-04-24T08:49:10.605Z,41.50
2017-04-24T08:50:10.509Z,40.20
2017-04-24T08:51:10.484Z,40.00
2017-04-24T08:52:10.439Z,39.40
2017-04-24T08:53:10.409Z,38.80
2017-04-24T08:54:10.335Z,38.80
2017-04-24T08:55:10.255Z,38.90
2017-04-24T08:56:10.172Z,38.80
2017-04-24T08:57:10.077Z,39.00
2017-04-24T08:58:09.982Z,39.60
2017-04-24T08:59:09.919Z,39.70
2017-04-24T09:00:10.584Z,39.70
2017-04-24T09:01:10.504Z,39.70
2017-04-24T09:02:10.490Z,39.80
2017-04-24T09:03:10.437Z,40.20
2017-04-24T09:04:11.113Z,40.80
2017-04-24T09:05:11.228Z,40.70
2017-04-24T09:06:11.130Z,40.50
2017-04-24T09:07:11.052Z,40.50
2017-04-24T09:08:10.950Z,40.50
2017-04-24T09:09:10.880Z,41.20
2017-04-24T09:10:10.761Z,41.50
2017-04-24T09:11:10.685Z,41.10
2017-04-24T09:12:10.598Z,41.10
2017-04-24T09:13:10.481Z,41.00
2017-04-24T09:14:10.418Z,41.20
2017-04-24T09:15:11.057Z,41.10
2017-04-24T09:16:10.932Z,41.50
2017-04-24T09:17:11.595Z,41.50
2017-04-24T09:18:11.480Z,41.80
2017-04-24T09:19:12.114Z,41.10
2017-04-24T09:20:12.112Z,42.00
2017-04-24T09:21:12.709Z,42.00
2017-04-24T09:22:13.351Z,41.60
2017-04-24T09:23:13.967Z,41.30
2017-04-24T09:24:14.635Z,41.20
2017-04-24T09:25:14.548Z,40.50
2017-04-24T09:26:14.507Z,40.20
2017-04-24T09:27:15.139Z,39.80
2017-04-24T09:28:15.134Z,40.20
2017-04-24T09:29:15.826Z,41.40
2017-04-24T09:30:16.517Z,40.90
2017-04-24T09:31:16.452Z,41.00
2017-04-24T09:32:16.433Z,41.20
2017-04-24T09:33:16.330Z,41.10
2017-04-24T09:34:16.336Z,41.00
2017-04-24T09:35:16.217Z,40.80
2017-04-24T09:36:16.098Z,40.30
2017-04-24T09:37:16.710Z,40.00
2017-04-24T09:38:17.386Z,40.50
2017-04-24T09:39:17.321Z,40.00
2017-04-24T09:40:17.217Z,39.90
2017-04-24T09:41:17.136Z,40.30
2017-04-24T09:42:17.009Z,39.90
2017-04-24T09:43:16.933Z,39.90
2017-04-24T09:44:16.845Z,39.90
2017-04-24T09:45:16.712Z,39.40
2017-04-24T09:46:16.633Z,38.30
2017-04-24T09:47:16.527Z,37.50
2017-04-24T09:48:16.381Z,36.30
2017-04-24T09:49:17.025Z,35.50
2017-04-24T09:50:16.936Z,35.20
2017-04-24T09:51:17.333Z,36.10
2017-04-24T09:52:17.928Z,35.90
2017-04-24T09:53:18.577Z,35.60
2017-04-24T09:54:18.514Z,35.60
2017-04-24T09:55:18.423Z,35.30
2017-04-24T09:56:18.289Z,35.10
2017-04-24T09:57:18.206Z,35.30
2017-04-24T09:58:18.117Z,34.80
2017-04-24T09:59:18.045Z,34.60
2017-04-24T10:00:17.941Z,33.70
2017-04-24T10:01:17.848Z,33.50
2017-04-24T10:02:17.717Z,33.30
2017-04-24T10:03:17.619Z,33.40
2017-04-24T10:04:17.526Z,32.70
2017-04-24T10:05:17.434Z,33.20
2017-04-24T10:06:17.316Z,33.70
2017-04-24T10:07:17.932Z,34.20
2017-04-24T10:08:18.573Z,34.70
2017-04-24T10:09:19.208Z,34.80
2017-04-24T10:10:19.094Z,34.70
2017-04-24T10:11:19.719Z,34.60
2017-04-24T10:12:19.697Z,34.50
2017-04-24T10:13:19.573Z,34.90
2017-04-24T10:14:19.521Z,35.20
2017-04-24T10:15:20.224Z,35.00
2017-04-24T10:16:20.884Z,35.70
2017-04-24T10:17:20.824Z,36.00
2017-04-24T10:18:20.733Z,36.00
2017-04-24T10:19:20.675Z,35.20
2017-04-24T10:20:21.330Z,34.70
2017-04-24T10:21:21.309Z,34.30
2017-04-24T10:22:21.964Z,34.40
2017-04-24T10:23:21.874Z,34.30
2017-04-24T10:24:21.858Z,34.30
2017-04-24T10:25:21.768Z,33.70
2017-04-24T10:26:21.673Z,33.40
2017-04-24T10:27:22.272Z,33.40
2017-04-24T10:28:22.941Z,33.60
2017-04-24T10:29:22.923Z,33.90
2017-04-24T10:30:22.865Z,34.00
2017-04-24T10:31:23.310Z,34.30
2017-04-24T10:32:24.000Z,34.20
2017-04-24T10:33:23.910Z,33.80
2017-04-24T10:34:23.865Z,34.40
2017-04-24T10:35:23.889Z,35.50
2017-04-24T10:36:23.926Z,35.40
2017-04-24T10:37:23.821Z,34.90
2017-04-24T10:38:23.783Z,35.60
2017-04-24T10:39:24.685Z,35.70
2017-04-24T10:40:24.597Z,36.20
2017-04-24T10:41:25.335Z,36.80
2017-04-24T10:42:26.042Z,37.10
2017-04-24T10:43:26.773Z,37.40
2017-04-24T10:44:27.468Z,37.50
2017-04-24T10:45:27.416Z,37.40
2017-04-24T10:46:27.404Z,37.60
2017-04-24T10:47:28.053Z,37.80
2017-04-24T10:48:27.990Z,37.70
2017-04-24T10:49:27.957Z,37.30
2017-04-24T10:50:28.645Z,36.10
2017-04-24T10:51:28.533Z,34.70
2017-04-24T10:52:28.432Z,33.70
2017-04-24T10:53:28.420Z,32.50
2017-04-24T10:54:28.361Z,31.70
2017-04-24T10:55:28.348Z,30.90
2017-04-24T10:56:28.358Z,29.70
2017-04-24T10:57:28.338Z,29.10
2017-04-24T10:58:28.296Z,29.00
2017-04-24T10:59:28.985Z,29.00
2017-04-24T11:00:28.957Z,29.00
2017-04-24T11:01:28.908Z,29.00
2017-04-24T11:02:28.836Z,28.80
2017-04-24T11:03:29.529Z,29.10
2017-04-24T11:04:29.497Z,29.30
2017-04-24T11:05:29.425Z,29.10
2017-04-24T11:06:29.391Z,28.80
2017-04-24T11:07:29.334Z,28.30
2017-04-24T11:08:29.260Z,27.80
2017-04-24T11:09:29.230Z,27.60
2017-04-24T11:10:29.143Z,27.80
2017-04-24T11:11:29.144Z,27.10
2017-04-24T11:12:29.083Z,27.00
2017-04-24T11:13:29.009Z,26.40
2017-04-24T11:14:29.753Z,26.80
2017-04-24T11:15:29.748Z,27.00
2017-04-24T11:16:30.499Z,27.00
2017-04-24T11:17:31.227Z,26.70
2017-04-24T11:18:32.301Z,26.50
2017-04-24T11:19:32.342Z,26.10
2017-04-24T11:20:33.086Z,26.50
2017-04-24T11:21:33.717Z,26.00
2017-04-24T11:22:33.622Z,26.40
2017-04-24T11:23:33.528Z,26.20
2017-04-24T11:24:33.453Z,26.20
2017-04-24T11:25:33.357Z,26.00
2017-04-24T11:26:33.276Z,26.40
2017-04-24T11:27:33.235Z,26.40
2017-04-24T11:28:33.138Z,27.00
2017-04-24T11:29:33.050Z,26.50
2017-04-24T11:30:33.049Z,26.00
2017-04-24T11:31:33.772Z,25.50
2017-04-24T11:32:34.441Z,25.30
2017-04-24T11:33:34.365Z,25.20
2017-04-24T11:34:34.273Z,25.10
2017-04-24T11:35:34.962Z,25.00
2017-04-24T11:36:35.078Z,26.00
2017-04-24T11:37:34.981Z,26.90
2017-04-24T11:38:34.947Z,27.70
2017-04-24T11:39:34.886Z,28.30
2017-04-24T11:40:34.840Z,28.70
2017-04-24T11:41:35.496Z,29.10
2017-04-24T11:42:35.402Z,29.40
2017-04-24T11:43:35.299Z,29.80
2017-04-24T11:44:35.243Z,30.10
2017-04-24T11:45:35.376Z,30.50
2017-04-24T11:46:36.262Z,31.00
2017-04-24T11:47:36.171Z,31.80
2017-04-24T11:48:36.069Z,32.60
2017-04-24T11:49:36.014Z,32.50
2017-04-24T11:50:36.757Z,32.70
2017-04-24T11:51:37.378Z,31.80
2017-04-24T11:52:37.325Z,31.10
2017-04-24T11:53:37.295Z,30.40
2017-04-24T11:54:37.924Z,29.60
2017-04-24T11:55:38.162Z,29.20
2017-04-24T11:56:38.076Z,28.80
2017-04-24T11:57:38.046Z,28.60
2017-04-24T11:58:37.949Z,28.30
2017-04-24T11:59:37.854Z,28.40
2017-04-24T12:00:37.845Z,28.80
2017-04-24T12:01:37.750Z,29.10
2017-04-24T12:02:38.382Z,29.50
2017-04-24T12:03:38.311Z,29.50
2017-04-24T12:04:38.209Z,29.40
2017-04-24T12:05:38.160Z,29.80
2017-04-24T12:06:38.069Z,30.10
2017-04-24T12:07:38.799Z,30.00
2017-04-24T12:08:39.475Z,30.60
2017-04-24T12:09:39.974Z,31.00
2017-04-24T12:10:40.229Z,31.20
2017-04-24T12:11:40.672Z,30.80
2017-04-24T12:12:41.777Z,30.70
2017-04-24T12:13:41.739Z,30.50
2017-04-24T12:14:41.929Z,30.30
2017-04-24T12:15:42.660Z,30.20
2017-04-24T12:16:42.721Z,30.50
2017-04-24T12:17:42.802Z,30.10
2017-04-24T12:18:42.837Z,29.60
2017-04-24T12:19:42.930Z,30.00
2017-04-24T12:20:43.021Z,29.70
2017-04-24T12:21:43.165Z,29.30
2017-04-24T12:22:43.173Z,28.90
2017-04-24T12:23:44.098Z,28.60
2017-04-24T12:24:44.862Z,28.60
2017-04-24T12:25:44.837Z,28.70
2017-04-24T12:26:44.762Z,28.40
2017-04-24T12:27:45.419Z,28.50
2017-04-24T12:28:45.330Z,28.80
2017-04-24T12:29:45.265Z,29.50
2017-04-24T12:30:45.309Z,30.30
2017-04-24T12:31:46.021Z,31.60
2017-04-24T12:32:45.933Z,32.40
2017-04-24T12:33:46.675Z,32.20
2017-04-24T12:34:46.696Z,32.00
2017-04-24T12:35:46.917Z,31.90
2017-04-24T12:36:46.949Z,32.20
2017-04-24T12:37:46.990Z,32.40
2017-04-24T12:38:48.373Z,32.60
2017-04-24T12:39:48.869Z,32.40
2017-04-24T12:40:48.909Z,32.80
2017-04-24T12:41:48.955Z,32.40
2017-04-24T12:42:49.457Z,32.20
2017-04-24T12:43:50.135Z,33.00
2017-04-24T12:44:50.065Z,32.70
2017-04-24T12:45:50.044Z,32.20
2017-04-24T12:46:50.025Z,32.20
2017-04-24T12:47:53.203Z,32.40
2017-04-24T12:48:54.933Z,32.20
2017-04-24T12:49:56.828Z,32.20
2017-04-24T12:50:57.131Z,32.70
2017-04-24T12:51:58.218Z,32.50
2017-04-24T12:52:58.670Z,32.50
2017-04-24T12:53:59.362Z,32.50
2017-04-24T12:54:59.303Z,32.80
2017-04-24T12:55:59.274Z,32.50
2017-04-24T12:56:59.177Z,32.40
2017-04-24T12:57:59.145Z,31.90
2017-04-24T12:58:59.069Z,31.70
2017-04-24T12:59:59.001Z,31.40
2017-04-24T13:00:58.976Z,32.50
2017-04-24T13:02:00.050Z,32.10
2017-04-24T13:03:00.728Z,32.60